首页
METAR-TAF:

METAR-TAF

机场 :

森讷堡机场

Sønderborg, 丹麦

纬度: 54-58N, 经度: 009-47E, 海拔: 7米

当前天气观测

该预报发布于29分钟前的00:50 UTC
风速15节,风向北转东北
温度 7°C
湿度 87%
气压 1008 hPa
能见度10公里或以上

METAR: EKSB 180050Z AUTO 02015KT 9999NDV OVC020/// 07/05 Q1008

时间: 02:19 (01:19 UTC)

预报

该预报发布于10小时和29分钟前的14:50 UTC
预报有效从17日的 15点(UTC)到 17日的 20点(UTC)
风速6节,风向东转东北
能见度10公里或以上
1500米以下无云,无积雨云
几率 40%
从 17日的 18点(UTC)到 17日的 20点(UTC)
能見度: 4000
轻雾

TAF: EKSB 171450Z 1715/1720 06006KT CAVOK PROB40 1718/1720 4000 BR

超过4000个机场的气象观测和天气预报(METAR&TAF报告)。

可查询的气象台以黄色和红色小点在地图上表示。

将鼠标移到小点上方,可查看气象台名称。

然后点击查看天气观测和预报。

如需切换地图:点击带黑十字的绿色按钮放大地图;点击带横线的绿色按钮缩小地图;或者点击绿色箭头查看邻近地区的地图。


METAR-TAF: